Skip Navigation LinksHome page > Weather > Current weather Skip Navigation Links

Current Weather

Central Park, New York

For information only: do not use for flight planning or navigation.
Latest weather
Observation time Wednesday, October 22, 2014 6:51 PM EDT
Local time Wednesday, October 22, 2014 7:03 PM EDT
Flight conditions Low Instrument Meteorological Conditions
Winds
Wind direction North (360°)
Winds variable from 320° to 30°
Wind speed 8 mph
Wind gusting to 16 mph
Visibility 3 mi.
Present weather rain, mist, fog
Sky condition
Ceiling 100 ft. broken clouds
Cloud layer broken clouds 100 ft.
Cloud layer broken clouds 200 ft.
Cloud layer broken clouds 1,200 ft.
Cloud layer overcast 1,800 ft.
Temperature 52°F
Dewpoint 49°F
Altimeter 30.15 in.Hg
Precipitation
Precipitation last hour 0.13 in.
Derived measurements
Relative humidity 89%
Density altitude -403 ft.
Sea-level pressure 29.82 in.Hg
Remarks
Special weather observation.
Fully automated report.
System requires maintenance.
Automated weather observing station with precipitation discriminator.
METAR KNYC 222251Z AUTO 36007G14KT 320V030 3SM RA BR BKN012 OVC018 11/09 A2984 RMK AO2 SLP097 P0013 T01110094 $ SPJP44 KWBC 222253 SPECI RJSK 222241Z 14003KT 0200 R28/0350V0500N FG BKN001 BKN002 07/06 Q1021 RMK 5ST001 7ST002 A3015

Settings

Location code

InnerDrive.Weather 4.0.5399.0 Release CLR 4.0.30319.34014
Copyright ©2014 Inner Drive Technology. All rights reserved. Portions Copyright ©1986-2014 David Braverman.

Find weather

Site navigation


Skip Navigation Links

Place info

Page info

PayPal - The safer, easier way to pay online!

Return home.

Copyright ©2014 Inner Drive Technology. Purveyors of fine, hand-crafted computer software. Page printed 2014-10-22T23:03:36 UTC.